Time;durP1;ratioP1;P1;durP2;ratioP2;P2;SDS_P1;SDS_P2;PMS_P1;PMS_P2;Temp;Humidity;BMP_temperature;BMP_pressure;BME280_temperature;BME280_humidity;BME280_pressure;Samples;Min_cycle;Max_cycle;Signal;HPM_P1;HPM_P2
2023/04/22 00:00:42;;;;;;;139.82;128.63;;;;;;;10.42;100.00;100815.63;4931173;29;20054;-90
2023/04/22 00:09:10;;;;;;;105.60;95.85;;;;;;;10.67;100.00;100829.94;4977679;28;20116;-90
2023/04/22 00:11:49;;;;;;;111.85;101.90;;;;;;;10.35;100.00;100814.78;5005055;28;20046;-89
2023/04/22 00:14:53;;;;;;;115.53;104.72;;;;;;;10.27;100.00;100815.78;5008520;28;20057;-90
2023/04/22 00:20:48;;;;;;;115.88;105.72;;;;;;;10.38;100.00;100815.22;4915677;29;20569;-90
2023/04/22 00:45:26;;;;;;;114.95;104.80;;;;;;;10.18;100.00;100846.97;4967330;28;20125;-90
2023/04/22 01:07:26;;;;;;;136.32;124.18;;;;;;;10.06;100.00;100846.72;4986727;28;20058;-90
2023/04/22 01:13:43;;;;;;;136.57;124.50;;;;;;;9.88;100.00;100835.03;4965804;28;20054;-90
2023/04/22 01:16:49;;;;;;;129.52;118.20;;;;;;;9.74;100.00;100853.56;4929905;28;20051;-90
2023/04/22 01:19:51;;;;;;;118.30;107.60;;;;;;;9.91;100.00;100839.94;4930588;29;20056;-91
2023/04/22 01:22:39;;;;;;;126.90;114.43;;;;;;;9.91;100.00;100838.09;4929788;29;20118;-90
2023/04/22 01:45:47;;;;;;;112.90;102.28;;;;;;;9.82;100.00;100837.47;4993707;28;20530;-90
2023/04/22 01:51:11;;;;;;;99.85;90.53;;;;;;;9.53;100.00;100845.69;4996083;28;20058;-89
2023/04/22 01:54:07;;;;;;;119.18;108.65;;;;;;;9.51;100.00;100843.22;4995517;28;20054;-90
2023/04/22 02:05:33;;;;;;;128.60;117.45;;;;;;;9.45;100.00;100835.25;4986835;28;20054;-89
2023/04/22 02:17:30;;;;;;;143.30;131.15;;;;;;;9.62;100.00;100812.66;4977829;28;20061;-89
2023/04/22 02:20:34;;;;;;;120.07;109.07;;;;;;;9.34;100.00;100812.75;4978166;28;20054;-90
2023/04/22 02:26:31;;;;;;;114.55;103.95;;;;;;;9.63;100.00;100823.09;4932321;28;20047;-90
2023/04/22 02:44:59;;;;;;;120.03;109.70;;;;;;;9.80;100.00;100828.06;4946879;28;20136;-89
2023/04/22 02:47:50;;;;;;;100.65;91.35;;;;;;;9.62;100.00;100826.78;4991857;28;20483;-90
2023/04/22 02:53:33;;;;;;;107.90;98.00;;;;;;;9.48;100.00;100819.75;4993402;28;20057;-90
2023/04/22 03:02:00;;;;;;;109.43;99.70;;;;;;;9.33;100.00;100825.19;4992637;28;20061;-89
2023/04/22 03:07:30;;;;;;;102.32;93.28;;;;;;;8.94;100.00;100820.44;4991920;28;20125;-88
2023/04/22 03:10:08;;;;;;;120.97;110.78;;;;;;;8.95;100.00;100814.94;4991717;28;20058;-90
2023/04/22 03:12:52;;;;;;;113.53;104.20;;;;;;;8.87;100.00;100814.28;4980123;28;20494;-90
2023/04/22 03:15:46;;;;;;;;;;;;;;;;;;;;;
2023/04/22 03:18:42;;;;;;;99.13;89.85;;;;;;;9.01;100.00;100823.13;4991534;28;20046;-90
2023/04/22 03:24:32;;;;;;;86.55;78.50;;;;;;;8.58;100.00;100824.00;4991255;28;20530;-91
2023/04/22 03:33:43;;;;;;;85.68;77.60;;;;;;;8.69;100.00;100820.84;4990865;28;20305;-90
2023/04/22 03:36:50;;;;;;;81.25;73.72;;;;;;;8.70;100.00;100835.72;4989540;28;20133;-89
2023/04/22 03:39:39;;;;;;;84.40;76.50;;;;;;;8.77;100.00;100834.97;4989955;28;20088;-90
2023/04/22 03:45:42;;;;;;;80.90;73.47;;;;;;;8.53;100.00;100834.34;4990031;28;20138;-90
2023/04/22 03:48:40;;;;;;;79.38;70.93;;;;;;;8.66;100.00;100833.66;4990065;28;20887;-89
2023/04/22 04:13:05;;;;;;;85.07;77.25;;;;;;;9.28;100.00;100879.78;4991066;28;20061;-90
2023/04/22 04:16:06;;;;;;;97.53;88.03;;;;;;;9.48;100.00;100878.09;4991567;28;20054;-90
2023/04/22 04:19:08;;;;;;;98.70;89.47;;;;;;;9.59;100.00;100884.66;4965207;28;20054;-90
2023/04/22 04:34:36;;;;;;;97.45;87.90;;;;;;;9.66;100.00;100913.91;4878056;29;20080;-90
2023/04/22 04:41:11;;;;;;;99.80;90.57;;;;;;;10.14;100.00;100928.03;4835923;29;20065;-89
2023/04/22 04:44:01;;;;;;;92.95;84.50;;;;;;;10.07;100.00;100927.97;4834719;29;20054;-90
2023/04/22 05:12:28;;;;;;;98.38;89.70;;;;;;;11.49;100.00;100960.78;4991817;28;20060;-90
2023/04/22 05:15:13;;;;;;;96.47;88.47;;;;;;;11.57;100.00;100951.78;4992604;28;20057;-90
2023/04/22 05:18:13;;;;;;;100.40;92.13;;;;;;;11.65;100.00;100956.91;4993744;28;20503;-90
2023/04/22 05:24:34;;;;;;;98.03;89.93;;;;;;;11.85;100.00;100949.69;4927877;29;20052;-89
2023/04/22 05:30:41;;;;;;;103.13;94.57;;;;;;;11.70;100.00;100949.91;4996670;28;20066;-90
2023/04/22 05:42:10;;;;;;;102.47;93.85;;;;;;;11.91;100.00;100975.50;4933724;28;20524;-89
2023/04/22 05:44:37;;;;;;;105.70;97.30;;;;;;;12.16;100.00;100977.47;4988878;28;20057;-90
2023/04/22 05:47:04;;;;;;;102.20;94.05;;;;;;;12.12;100.00;100965.59;4992582;28;20050;-90
2023/04/22 05:49:30;;;;;;;99.22;91.32;;;;;;;12.62;100.00;100979.16;4993718;28;20065;-90
2023/04/22 05:51:57;;;;;;;90.90;83.75;;;;;;;12.47;100.00;100973.28;4992767;28;20054;-90
2023/04/22 05:54:25;;;;;;;78.25;72.20;;;;;;;12.44;100.00;100976.38;4993498;28;20124;-90
2023/04/22 05:56:53;;;;;;;79.50;72.93;;;;;;;12.57;100.00;100974.44;4993338;28;20082;-90
2023/04/22 05:59:19;;;;;;;82.05;75.45;;;;;;;12.87;100.00;100978.38;4992643;28;20073;-90
2023/04/22 06:01:55;;;;;;;92.28;84.15;;;;;;;13.12;100.00;100981.09;4992909;28;20046;-90
2023/04/22 06:04:22;;;;;;;94.20;86.93;;;;;;;13.16;100.00;100983.13;4992941;28;20435;-90
2023/04/22 06:06:52;;;;;;;97.03;89.13;;;;;;;13.13;100.00;100980.88;4993701;28;20047;-89
2023/04/22 06:09:19;;;;;;;100.18;92.35;;;;;;;13.13;100.00;100985.38;4992032;28;20141;-89
2023/04/22 06:11:47;;;;;;;96.95;89.35;;;;;;;13.32;100.00;100994.31;4993090;28;20148;-90
2023/04/22 06:14:14;;;;;;;104.40;96.10;;;;;;;13.50;100.00;100997.84;4993013;28;20054;-90
2023/04/22 06:16:41;;;;;;;106.95;99.32;;;;;;;13.35;100.00;100996.56;4992868;28;20049;-90
2023/04/22 06:19:08;;;;;;;104.13;96.63;;;;;;;13.51;100.00;101001.34;4993026;28;20495;-89
2023/04/22 06:21:37;;;;;;;95.80;88.65;;;;;;;13.45;100.00;101004.88;4992513;28;20061;-89
2023/04/22 06:24:05;;;;;;;87.82;80.80;;;;;;;13.51;100.00;101012.00;4991682;28;20049;-90
2023/04/22 06:26:32;;;;;;;74.40;68.40;;;;;;;13.36;100.00;101009.66;4988389;28;20046;-90
2023/04/22 06:29:01;;;;;;;72.90;67.07;;;;;;;13.72;100.00;101016.94;4988240;28;20058;-90
2023/04/22 06:31:28;;;;;;;62.00;56.45;;;;;;;13.60;100.00;101024.03;4993294;28;20054;-89
2023/04/22 06:33:55;;;;;;;71.60;65.95;;;;;;;13.73;100.00;101020.44;4992702;28;20046;-90
2023/04/22 06:36:22;;;;;;;72.10;66.40;;;;;;;13.92;100.00;101032.81;4992397;28;20055;-88
2023/04/22 06:38:49;;;;;;;60.70;55.70;;;;;;;13.95;100.00;101032.34;4992291;28;20050;-90
2023/04/22 06:41:17;;;;;;;54.95;50.65;;;;;;;13.97;100.00;101032.94;4992984;28;20050;-90
2023/04/22 06:43:49;;;;;;;53.50;49.00;;;;;;;13.98;100.00;101044.47;4988322;28;20125;-90
2023/04/22 06:46:18;;;;;;;53.40;48.97;;;;;;;14.02;100.00;101036.81;4992216;28;20145;-90
2023/04/22 06:48:45;;;;;;;60.22;54.85;;;;;;;14.50;100.00;101039.56;4992472;28;20046;-90
2023/04/22 06:51:11;;;;;;;58.47;53.67;;;;;;;14.69;100.00;101035.06;4986050;28;20093;-90
2023/04/22 06:53:38;;;;;;;46.72;42.47;;;;;;;14.66;100.00;101032.81;4992288;28;20502;-90
2023/04/22 06:56:06;;;;;;;39.67;36.10;;;;;;;14.65;100.00;101041.91;4990075;28;20057;-90
2023/04/22 06:58:33;;;;;;;32.83;29.92;;;;;;;14.53;100.00;101023.13;4991518;28;20053;-89
2023/04/22 07:01:00;;;;;;;27.63;25.30;;;;;;;14.51;100.00;101035.03;4988310;28;20054;-89
2023/04/22 07:03:28;;;;;;;29.92;27.70;;;;;;;14.48;100.00;101032.81;4991277;28;20042;-90
2023/04/22 07:05:55;;;;;;;34.55;31.45;;;;;;;14.58;100.00;101033.97;4981628;28;20046;-90
2023/04/22 07:08:22;;;;;;;28.70;26.30;;;;;;;14.41;100.00;101030.22;4983873;28;20108;-89
2023/04/22 07:10:49;;;;;;;30.13;27.75;;;;;;;14.69;100.00;101039.59;4980099;28;20049;-90
2023/04/22 07:13:15;;;;;;;32.17;29.20;;;;;;;14.99;100.00;101047.63;4980070;28;20043;-90
2023/04/22 07:15:42;;;;;;;22.83;20.67;;;;;;;14.73;100.00;101048.78;4990556;28;20057;-89
2023/04/22 07:18:09;;;;;;;21.33;19.33;;;;;;;14.62;100.00;101045.84;4989972;28;20046;-90
2023/04/22 07:20:38;;;;;;;22.60;20.50;;;;;;;14.71;100.00;101050.88;4991243;28;20061;-90
2023/04/22 07:23:05;;;;;;;23.48;20.80;;;;;;;14.91;100.00;101055.94;4980937;28;20261;-90
2023/04/22 07:25:32;;;;;;;22.77;20.88;;;;;;;14.48;100.00;101054.19;4989198;28;20471;-89
2023/04/22 07:27:58;;;;;;;22.48;20.45;;;;;;;14.58;100.00;101060.69;4986764;28;20050;-89
2023/04/22 07:30:25;;;;;;;23.52;21.35;;;;;;;14.64;100.00;101056.28;4991319;28;20056;-90
2023/04/22 07:33:40;;;;;;;22.33;20.13;;;;;;;14.50;100.00;101044.91;4990325;28;20062;-89
2023/04/22 07:42:48;;;;;;;23.65;21.42;;;;;;;15.21;100.00;101054.09;4925673;29;20134;-89
2023/04/22 07:45:35;;;;;;;21.65;19.83;;;;;;;15.43;100.00;101059.75;4930920;29;20063;-90
2023/04/22 07:51:35;;;;;;;21.10;18.95;;;;;;;15.48;100.00;101061.72;4975226;28;20130;-89
2023/04/22 08:00:47;;;;;;;22.42;20.05;;;;;;;15.24;100.00;101060.84;4981455;28;20058;-89
2023/04/22 08:03:43;;;;;;;21.77;19.67;;;;;;;15.40;100.00;101059.38;4990850;28;20702;-89
2023/04/22 08:06:54;;;;;;;22.73;20.30;;;;;;;15.38;100.00;101048.91;4983931;28;20057;-88
2023/04/22 08:12:35;;;;;;;22.17;19.77;;;;;;;15.77;100.00;101070.75;4896794;29;20060;-90
2023/04/22 08:15:11;;;;;;;22.27;20.00;;;;;;;15.62;100.00;101079.22;4897313;29;20053;-91
2023/04/22 08:17:38;;;;;;;21.88;19.23;;;;;;;15.75;100.00;101070.16;4920907;29;20047;-89
2023/04/22 08:20:07;;;;;;;24.25;22.23;;;;;;;15.99;100.00;101079.03;4961139;28;20245;-89
2023/04/22 08:22:34;;;;;;;23.42;21.35;;;;;;;16.78;100.00;101075.91;4995026;28;20499;-90
2023/04/22 08:25:06;;;;;;;22.25;19.98;;;;;;;16.69;100.00;101070.06;4994366;28;20051;-89
2023/04/22 08:27:33;;;;;;;22.15;19.80;;;;;;;17.12;100.00;101072.25;4992528;28;20112;-89
2023/04/22 08:30:00;;;;;;;22.30;19.85;;;;;;;17.15;100.00;101062.94;4992754;28;20054;-89
2023/04/22 08:32:28;;;;;;;24.02;20.35;;;;;;;17.33;100.00;101081.50;4992095;28;20504;-89
2023/04/22 08:41:23;;;;;;;21.35;19.30;;;;;;;16.80;100.00;101080.00;4947997;28;20050;-92
2023/04/22 08:43:50;;;;;;;22.83;20.65;;;;;;;16.68;100.00;101081.88;4989437;28;20133;-91
2023/04/22 08:46:19;;;;;;;22.90;20.65;;;;;;;17.37;100.00;101088.03;4986705;28;20053;-90
2023/04/22 08:48:48;;;;;;;21.42;19.17;;;;;;;16.77;100.00;101087.72;4992474;28;20038;-89
2023/04/22 08:51:16;;;;;;;26.05;21.05;;;;;;;16.64;100.00;101091.41;4992045;28;20057;-89
2023/04/22 08:53:43;;;;;;;22.88;20.90;;;;;;;16.56;100.00;101107.91;4993331;28;20054;-89
2023/04/22 08:56:31;;;;;;;24.02;21.60;;;;;;;16.29;100.00;101105.72;4992680;28;20062;-89
2023/04/22 09:02:52;;;;;;;21.23;19.02;;;;;;;16.21;100.00;101087.28;4978853;28;20507;-90
2023/04/22 09:08:59;;;;;;;22.67;20.48;;;;;;;15.69;100.00;101096.00;4981956;28;20081;-91
2023/04/22 09:27:58;;;;;;;22.73;20.52;;;;;;;16.48;100.00;101069.66;4928655;29;20549;-91
2023/04/22 09:34:03;;;;;;;;;;;;;;;;;;;;;
2023/04/22 09:36:50;;;;;;;24.98;21.63;;;;;;;17.89;100.00;101065.53;4985011;28;20058;-91
2023/04/22 09:55:52;;;;;;;;;;;;;;;;;;;;;
2023/04/22 10:08:50;;;;;;;23.25;19.50;;;;;;;17.68;100.00;101042.06;4979829;28;20541;-89
2023/04/22 10:18:16;;;;;;;29.05;21.00;;;;;;;19.36;100.00;101030.66;4990524;28;20108;-89
2023/04/22 10:21:08;;;;;;;21.38;19.35;;;;;;;19.69;94.84;101031.50;4959613;28;20054;-88
2023/04/22 10:24:02;;;;;;;22.13;19.83;;;;;;;19.66;89.03;101032.00;4986793;28;20054;-89
2023/04/22 10:30:31;;;;;;;21.42;19.40;;;;;;;19.16;82.82;101031.31;4991918;28;20050;-89
2023/04/22 10:33:48;;;;;;;23.13;20.98;;;;;;;19.79;100.00;101028.03;4969047;28;20078;-89
2023/04/22 10:36:36;;;;;;;25.25;20.70;;;;;;;19.95;85.94;101018.19;4992947;28;20054;-89
2023/04/22 10:39:37;;;;;;;21.15;19.25;;;;;;;19.25;82.80;101017.41;4987298;28;20050;-89
2023/04/22 10:45:42;;;;;;;25.25;20.95;;;;;;;19.19;87.86;101013.84;4978554;28;20043;-89
2023/04/22 10:52:19;;;;;;;;;;;;;;;;;;;;;
2023/04/22 10:58:52;;;;;;;27.13;24.85;;;;;;;20.06;64.22;101015.28;4992366;28;20069;-89
2023/04/22 11:02:01;;;;;;;24.90;22.02;;;;;;;19.48;54.28;101005.44;4990115;28;20438;-89
2023/04/22 11:05:26;;;;;;;22.17;19.98;;;;;;;18.76;100.00;101011.00;4979643;28;20630;-89
2023/04/22 11:20:16;;;;;;;22.92;20.60;;;;;;;19.75;79.17;101024.25;4989218;28;20077;-88
2023/04/22 11:27:03;;;;;;;23.58;20.50;;;;;;;19.65;70.23;101015.03;4968716;28;20140;-89
2023/04/22 11:30:29;;;;;;;;;;;;;;;;;;;;;
2023/04/22 12:10:26;;;;;;;21.27;19.10;;;;;;;19.36;95.81;100994.84;4970425;28;20439;-89
2023/04/22 12:13:11;;;;;;;23.13;20.85;;;;;;;18.97;82.53;100992.34;4966560;28;20066;-89
2023/04/22 12:16:18;;;;;;;21.95;19.95;;;;;;;19.13;75.79;100983.38;4989382;28;20161;-89
2023/04/22 12:19:24;;;;;;;24.42;21.83;;;;;;;20.86;71.56;100976.44;4988169;28;20502;-89
2023/04/22 12:22:32;;;;;;;24.65;21.73;;;;;;;19.94;90.46;100981.50;4990436;28;20515;-89
2023/04/22 12:25:48;;;;;;;23.38;20.90;;;;;;;19.88;83.34;100992.28;4976256;28;20057;-89
2023/04/22 12:28:33;;;;;;;21.65;19.38;;;;;;;19.99;91.20;100989.63;4968384;28;20147;-89
2023/04/22 12:40:36;;;;;;;22.02;19.80;;;;;;;20.27;100.00;100972.22;4926617;28;20059;-90
2023/04/22 12:49:35;;;;;;;26.88;20.00;;;;;;;20.34;73.50;100976.31;4985547;28;20054;-89
2023/04/22 12:58:21;;;;;;;22.70;20.25;;;;;;;20.40;73.14;100970.94;4932651;29;20127;-89
2023/04/22 13:01:17;;;;;;;22.40;20.48;;;;;;;19.97;100.00;100951.31;4934415;29;20063;-89
2023/04/22 13:04:20;;;;;;;24.67;22.48;;;;;;;19.12;100.00;100962.06;4969641;28;20054;-89
2023/04/22 13:07:02;;;;;;;21.77;19.95;;;;;;;20.85;63.33;100950.53;4992483;28;20046;-90
2023/04/22 13:09:50;;;;;;;22.33;20.00;;;;;;;20.70;57.85;100956.72;4987528;28;20494;-89
2023/04/22 13:13:07;;;;;;;21.40;19.48;;;;;;;21.14;57.18;100958.91;4993555;28;20070;-90
2023/04/22 13:22:44;;;;;;;;;;;;;;;;;;;;;
2023/04/22 13:25:56;;;;;;;28.63;20.60;;;;;;;20.98;66.78;100953.50;4932781;29;20044;-90
2023/04/22 13:28:51;;;;;;;21.60;19.52;;;;;;;21.18;61.81;100963.50;4962850;28;20061;-89
2023/04/22 13:31:51;;;;;;;21.45;19.45;;;;;;;21.77;76.85;100947.78;4992365;28;20050;-90
2023/04/22 13:37:57;;;;;;;21.90;20.17;;;;;;;20.02;70.33;100960.25;4956723;28;20109;-89
2023/04/22 13:52:42;;;;;;;;;;;;;;;;;;;;;
2023/04/22 14:21:25;;;;;;;23.02;20.90;;;;;;;18.78;87.76;100981.16;4984994;28;20046;-89
2023/04/22 14:30:41;;;;;;;23.88;22.08;;;;;;;17.72;100.00;101006.41;4988863;28;20058;-90
2023/04/22 14:33:48;;;;;;;22.80;20.48;;;;;;;17.32;100.00;100995.84;4941646;29;20134;-90
2023/04/22 14:39:32;;;;;;;27.40;24.60;;;;;;;18.58;97.57;100997.88;4932425;29;20059;-89
2023/04/22 14:48:03;;;;;;;26.88;23.67;;;;;;;18.77;84.02;100998.38;4987747;28;20431;-89
2023/04/22 14:50:30;;;;;;;24.83;22.85;;;;;;;18.31;81.03;101017.47;4979050;28;20050;-90
2023/04/22 14:52:59;;;;;;;23.23;20.10;;;;;;;17.99;94.13;101003.06;4991435;28;20057;-90
2023/04/22 14:55:26;;;;;;;22.65;20.42;;;;;;;17.95;77.74;101005.44;4991753;28;20050;-90
2023/04/22 14:57:55;;;;;;;25.08;22.73;;;;;;;17.80;74.91;101011.41;4991543;28;20054;-90
2023/04/22 15:00:23;;;;;;;24.52;22.63;;;;;;;17.49;80.85;101007.41;4991439;28;20129;-89
2023/04/22 15:02:50;;;;;;;23.27;21.30;;;;;;;17.53;85.55;101005.84;4991562;28;20058;-90
2023/04/22 15:05:17;;;;;;;23.77;21.92;;;;;;;18.07;83.31;101011.50;4991978;28;20535;-89
2023/04/22 15:07:44;;;;;;;24.10;21.67;;;;;;;18.02;100.00;101005.25;4991694;28;20046;-90
2023/04/22 15:10:13;;;;;;;23.90;21.52;;;;;;;18.05;100.00;101007.44;4991360;28;20054;-89
2023/04/22 15:13:12;;;;;;;23.27;21.35;;;;;;;17.79;100.00;100995.50;4991282;28;20081;-89
2023/04/22 15:16:13;;;;;;;24.95;22.42;;;;;;;18.04;90.93;100995.88;4982916;28;20129;-90
2023/04/22 15:27:36;;;;;;;22.55;20.25;;;;;;;18.34;91.75;100980.38;4988285;28;20510;-90
2023/04/22 15:43:10;;;;;;;34.10;30.60;;;;;;;17.82;81.61;100993.16;4990826;28;20109;-90
2023/04/22 15:45:37;;;;;;;25.10;22.80;;;;;;;17.56;84.06;100999.19;4991340;28;20698;-90
2023/04/22 16:11:43;;;;;;;32.63;29.48;;;;;;;17.10;100.00;101022.59;4940214;29;20107;-90
2023/04/22 16:14:11;;;;;;;31.70;28.52;;;;;;;16.91;100.00;101027.34;4943075;29;20086;-89
2023/04/22 16:16:39;;;;;;;33.45;30.35;;;;;;;16.76;100.00;101024.38;4976544;28;20055;-90
2023/04/22 16:19:07;;;;;;;32.83;29.42;;;;;;;16.80;100.00;101036.28;4991048;28;20270;-89
2023/04/22 16:21:34;;;;;;;25.90;23.55;;;;;;;16.43;100.00;101037.41;4987443;28;20047;-90
2023/04/22 16:24:01;;;;;;;32.20;26.75;;;;;;;16.36;100.00;101036.69;4990642;28;20051;-90
2023/04/22 16:26:27;;;;;;;32.35;28.88;;;;;;;16.24;100.00;101034.03;4990876;28;20047;-90
2023/04/22 16:28:56;;;;;;;32.63;28.15;;;;;;;16.13;100.00;101034.09;4994821;28;20506;-90
2023/04/22 16:31:37;;;;;;;34.58;29.17;;;;;;;15.86;100.00;101045.28;4995215;28;20050;-89
2023/04/22 16:34:04;;;;;;;36.33;32.63;;;;;;;15.61;100.00;101048.09;4995207;28;20050;-90
2023/04/22 16:36:31;;;;;;;36.42;32.80;;;;;;;15.42;100.00;101044.72;4994607;28;20061;-89
2023/04/22 16:38:58;;;;;;;33.53;29.33;;;;;;;15.26;100.00;101051.53;4995585;28;20447;-90
2023/04/22 16:41:25;;;;;;;60.13;41.63;;;;;;;15.21;100.00;101047.91;4994617;28;20073;-89
2023/04/22 16:43:52;;;;;;;35.72;31.67;;;;;;;14.98;100.00;101046.00;4994750;28;20450;-90
2023/04/22 16:46:29;;;;;;;30.00;26.88;;;;;;;14.92;100.00;101058.41;4994548;28;20053;-90
2023/04/22 16:48:56;;;;;;;34.20;28.17;;;;;;;14.69;100.00;101058.31;4994872;28;20051;-89
2023/04/22 16:51:23;;;;;;;29.30;26.25;;;;;;;14.53;100.00;101059.72;4994378;28;20065;-90
2023/04/22 16:53:50;;;;;;;34.78;28.45;;;;;;;14.29;100.00;101064.88;4994559;28;20055;-89
2023/04/22 16:56:17;;;;;;;36.42;31.30;;;;;;;14.23;100.00;101063.09;4994271;28;20061;-90
2023/04/22 16:58:44;;;;;;;30.67;23.13;;;;;;;13.98;100.00;101071.97;4993705;28;20057;-90
2023/04/22 17:01:11;;;;;;;26.00;23.45;;;;;;;13.90;100.00;101074.09;4994596;28;20053;-89
2023/04/22 17:03:39;;;;;;;25.63;23.05;;;;;;;13.79;100.00;101074.81;4993553;28;20054;-90
2023/04/22 17:06:06;;;;;;;24.70;22.05;;;;;;;13.57;100.00;101074.38;4994511;28;20535;-89
2023/04/22 17:08:34;;;;;;;26.48;23.73;;;;;;;13.55;100.00;101065.75;4994469;28;20500;-89
2023/04/22 17:11:01;;;;;;;26.73;23.85;;;;;;;13.41;100.00;101081.88;4994740;28;20053;-89
2023/04/22 17:13:27;;;;;;;27.55;25.00;;;;;;;13.01;100.00;101076.75;4994307;28;20058;-89
2023/04/22 17:15:54;;;;;;;25.80;22.88;;;;;;;13.07;100.00;101083.06;4994102;28;20058;-90
2023/04/22 17:18:21;;;;;;;27.70;24.77;;;;;;;12.68;100.00;101084.03;4993874;28;20058;-89
2023/04/22 17:20:49;;;;;;;26.95;24.30;;;;;;;12.85;100.00;101085.22;4993695;28;20051;-89
2023/04/22 17:23:17;;;;;;;31.63;28.23;;;;;;;12.61;100.00;101084.06;4992383;28;20050;-90
2023/04/22 17:25:46;;;;;;;29.65;26.83;;;;;;;12.66;100.00;101088.78;4993684;28;20049;-89
2023/04/22 17:28:13;;;;;;;30.95;27.88;;;;;;;12.42;100.00;101098.28;4993101;28;20053;-90
2023/04/22 17:30:41;;;;;;;29.60;26.35;;;;;;;12.48;100.00;101094.78;4988949;28;20608;-90
2023/04/22 17:33:09;;;;;;;33.35;30.17;;;;;;;11.73;100.00;101099.53;4989577;28;20128;-90
2023/04/22 17:35:36;;;;;;;36.97;30.02;;;;;;;11.46;100.00;101097.66;4991358;28;20050;-90
2023/04/22 17:38:05;;;;;;;35.15;29.20;;;;;;;11.49;100.00;101108.94;4987127;28;20061;-89
2023/04/22 17:40:32;;;;;;;35.53;31.63;;;;;;;11.47;100.00;101101.16;4991402;28;20043;-89
2023/04/22 17:42:59;;;;;;;36.85;31.95;;;;;;;11.41;100.00;101105.44;4990151;28;20058;-89
2023/04/22 17:45:26;;;;;;;37.50;33.47;;;;;;;11.51;100.00;101102.38;4991157;28;20109;-90
2023/04/22 17:47:52;;;;;;;36.45;32.60;;;;;;;11.28;100.00;101109.91;4988862;28;20042;-89
2023/04/22 17:50:46;;;;;;;38.65;34.63;;;;;;;11.33;100.00;101102.97;4990590;28;20050;-89
2023/04/22 17:53:55;;;;;;;43.20;35.53;;;;;;;11.28;100.00;101124.00;4987929;28;20523;-89
2023/04/22 17:56:24;;;;;;;42.75;38.10;;;;;;;10.86;100.00;101122.44;4991009;28;20046;-89
2023/04/22 17:58:51;;;;;;;41.28;35.60;;;;;;;10.68;100.00;101133.56;4983852;28;20050;-90
2023/04/22 18:01:24;;;;;;;45.03;39.85;;;;;;;10.76;100.00;101130.78;4988669;28;20050;-89
2023/04/22 18:03:51;;;;;;;56.70;47.95;;;;;;;10.57;100.00;101142.13;4985819;28;20134;-89
2023/04/22 18:06:18;;;;;;;51.95;44.05;;;;;;;10.46;100.00;101143.47;4991878;28;20054;-89
2023/04/22 18:08:45;;;;;;;45.63;40.58;;;;;;;10.34;100.00;101150.34;4991032;28;20104;-90
2023/04/22 18:11:12;;;;;;;45.35;37.65;;;;;;;10.51;100.00;101149.84;4986992;28;20046;-90
2023/04/22 18:14:26;;;;;;;41.65;37.25;;;;;;;10.73;100.00;101150.56;4992529;28;20052;-89
2023/04/22 18:17:01;;;;;;;57.97;51.47;;;;;;;10.76;100.00;101152.03;4991852;28;20057;-89
2023/04/22 18:22:30;;;;;;;53.90;46.70;;;;;;;10.50;100.00;101144.75;4991248;28;20726;-89
2023/04/22 18:25:20;;;;;;;47.65;42.63;;;;;;;10.49;100.00;101156.34;4992329;28;20050;-89
2023/04/22 18:27:49;;;;;;;56.97;49.33;;;;;;;10.37;100.00;101163.22;4991053;28;20038;-90
2023/04/22 18:30:16;;;;;;;43.97;39.85;;;;;;;10.07;100.00;101166.84;4991204;28;20181;-89
2023/04/22 18:32:55;;;;;;;42.53;38.30;;;;;;;9.91;100.00;101153.84;4990981;28;20144;-89
2023/04/22 18:35:54;;;;;;;43.80;40.00;;;;;;;9.84;100.00;101175.00;4989895;28;20053;-90
2023/04/22 18:41:36;;;;;;;54.90;41.58;;;;;;;9.62;100.00;101173.34;4987801;28;20046;-90
2023/04/22 18:44:30;;;;;;;80.40;63.33;;;;;;;9.81;100.00;101180.69;4989483;28;20522;-89
2023/04/22 18:47:25;;;;;;;56.60;50.47;;;;;;;9.97;100.00;101163.69;4989121;28;20060;-90
2023/04/22 18:50:33;;;;;;;44.17;39.72;;;;;;;10.09;100.00;101185.22;4910305;29;20820;-89
2023/04/22 18:59:32;;;;;;;44.88;40.55;;;;;;;9.50;100.00;101175.69;4910352;29;20048;-90
2023/04/22 19:04:48;;;;;;;37.60;34.40;;;;;;;10.01;100.00;101180.88;4988297;28;20064;-89
2023/04/22 19:10:35;;;;;;;34.15;31.20;;;;;;;9.99;100.00;101168.81;4910754;28;20055;-89
2023/04/22 19:13:03;;;;;;;34.95;31.83;;;;;;;10.05;100.00;101168.88;4989669;28;20046;-90
2023/04/22 19:15:29;;;;;;;40.75;36.80;;;;;;;9.86;100.00;101173.00;4990305;28;20077;-90
2023/04/22 19:17:56;;;;;;;32.92;30.23;;;;;;;9.85;100.00;101175.84;4990364;28;20429;-90
2023/04/22 19:20:23;;;;;;;33.63;30.85;;;;;;;10.05;100.00;101174.19;4988322;28;20424;-90
2023/04/22 19:22:50;;;;;;;31.88;29.02;;;;;;;10.11;100.00;101156.69;4990887;28;20057;-90
2023/04/22 19:25:18;;;;;;;54.35;43.22;;;;;;;9.97;100.00;101176.97;4990474;28;20046;-90
2023/04/22 19:30:45;;;;;;;39.30;35.38;;;;;;;9.72;100.00;101171.22;4987919;28;20049;-90
2023/04/22 19:34:03;;;;;;;64.43;52.00;;;;;;;9.77;100.00;101168.84;4990038;28;20049;-90
2023/04/22 19:49:09;;;;;;;55.30;49.10;;;;;;;9.73;100.00;101174.69;4966458;28;20054;-90
2023/04/22 19:58:19;;;;;;;50.97;43.65;;;;;;;9.21;100.00;101173.13;4988034;28;20128;-90
2023/04/22 20:01:35;;;;;;;49.92;43.97;;;;;;;9.31;100.00;101170.97;4988803;28;20050;-90
2023/04/22 20:04:36;;;;;;;51.63;46.03;;;;;;;9.36;100.00;101168.59;4934441;29;20051;-89
2023/04/22 20:10:11;;;;;;;54.33;48.47;;;;;;;9.48;100.00;101192.81;4991566;28;20488;-90
2023/04/22 20:20:13;;;;;;;54.85;49.03;;;;;;;9.03;100.00;101182.25;4991065;28;20066;-90
2023/04/22 20:23:32;;;;;;;52.60;46.85;;;;;;;9.08;100.00;101194.97;4990070;28;20046;-90
2023/04/22 20:29:33;;;;;;;49.10;44.20;;;;;;;8.82;100.00;101187.47;4982174;28;20558;-90
2023/04/22 20:32:33;;;;;;;71.40;42.28;;;;;;;8.82;100.00;101185.66;4994083;28;20051;-89
2023/04/22 20:42:05;;;;;;;50.13;44.88;;;;;;;8.67;100.00;101190.13;4955530;28;20142;-89
2023/04/22 20:57:19;;;;;;;47.15;41.78;;;;;;;8.64;100.00;101195.78;4994690;28;20120;-90
2023/04/22 21:03:07;;;;;;;52.22;46.88;;;;;;;8.47;100.00;101201.25;4992684;28;20056;-90
2023/04/22 21:27:02;;;;;;;60.47;54.10;;;;;;;8.31;100.00;101211.13;4997744;28;20057;-89
2023/04/22 21:29:53;;;;;;;57.90;52.20;;;;;;;8.40;100.00;101210.09;4996458;28;20209;-89
2023/04/22 21:39:04;;;;;;;54.20;48.55;;;;;;;8.34;100.00;101210.75;4996872;28;20038;-89
2023/04/22 21:42:06;;;;;;;53.75;48.65;;;;;;;8.43;100.00;101218.47;4997874;28;20466;-90
2023/04/22 21:47:46;;;;;;;58.72;52.60;;;;;;;8.21;100.00;101195.50;4994615;28;20050;-90
2023/04/22 21:53:08;;;;;;;;;;;;;;;8.35;100.00;101205.31;4997567;28;20054;-90
2023/04/22 22:01:55;;;;;;;64.05;57.60;;;;;;;7.88;100.00;101193.09;4997947;28;20134;-90
2023/04/22 22:04:42;;;;;;;68.85;62.65;;;;;;;8.04;100.00;101202.72;4992995;28;20042;-90
2023/04/22 22:17:07;;;;;;;63.40;57.08;;;;;;;7.98;100.00;101206.09;4988547;28;20053;-89
2023/04/22 22:20:05;;;;;;;61.22;55.50;;;;;;;7.77;100.00;101191.69;4990051;28;20048;-90
2023/04/22 22:22:57;;;;;;;64.05;57.83;;;;;;;7.60;100.00;101192.81;4990612;28;20050;-89
2023/04/22 22:40:16;;;;;;;68.22;62.00;;;;;;;7.47;100.00;101196.00;4990993;28;20124;-90
2023/04/22 22:43:21;;;;;;;63.67;57.65;;;;;;;7.11;100.00;101203.63;4992335;28;20053;-90
2023/04/22 22:46:01;;;;;;;72.95;66.13;;;;;;;7.09;100.00;101195.03;4991953;28;20487;-90
2023/04/22 22:48:46;;;;;;;65.78;59.40;;;;;;;7.01;100.00;101185.31;4991104;28;20042;-89
2023/04/22 23:00:09;;;;;;;95.75;88.22;;;;;;;6.98;100.00;101188.28;4992317;28;20073;-89